Time;durP1;ratioP1;P1;durP2;ratioP2;P2;SDS_P1;SDS_P2;PMS_P1;PMS_P2;Temp;Humidity;BMP_temperature;BMP_pressure;BME280_temperature;BME280_humidity;BME280_pressure;Samples;Min_cycle;Max_cycle;Signal;HPM_P1;HPM_P2
2022/11/09 00:02:18;;;;;;;;;;;;;;;12.42;66.21;100825.53;5076757;28;19924;-61
2022/11/09 00:04:44;;;;;;;;;;;;;;;12.41;66.26;100829.09;5102973;28;19973;-60
2022/11/09 00:07:09;;;;;;;;;;;;;;;12.41;66.60;100838.81;5102127;28;19947;-60
2022/11/09 00:09:34;;;;;;;;;;;;;;;12.40;66.36;100832.69;5104821;28;19966;-57
2022/11/09 00:12:03;;;;;;;;;;;;;;;12.40;66.25;100826.59;5098848;28;20346;-59
2022/11/09 00:14:29;;;;;;;;;;;;;;;12.38;66.43;100821.38;5095271;28;19916;-57
2022/11/09 00:16:55;;;;;;;;;;;;;;;12.38;66.38;100826.66;5108693;28;19920;-58
2022/11/09 00:19:21;;;;;;;;;;;;;;;12.36;66.49;100812.72;5109445;27;19926;-61
2022/11/09 00:21:46;;;;;;;;;;;;;;;12.34;66.46;100814.59;5092568;28;19920;-60
2022/11/09 00:24:11;;;;;;;;;;;;;;;12.33;66.44;100813.78;5112166;28;20015;-58
2022/11/09 00:26:37;;;;;;;;;;;;;;;12.33;66.50;100812.91;5111239;28;19928;-57
2022/11/09 00:29:02;;;;;;;;;;;;;;;12.31;66.58;100820.09;5104433;27;19924;-61
2022/11/09 00:31:27;;;;;;;;;;;;;;;12.31;66.52;100813.00;5084201;28;19920;-57
2022/11/09 00:33:54;;;;;;;;;;;;;;;12.31;66.60;100825.38;5105278;27;19927;-60
2022/11/09 00:36:20;;;;;;;;;;;;;;;12.33;66.61;100820.81;5107725;27;19934;-59
2022/11/09 00:38:51;;;;;;;;;;;;;;;12.33;66.64;100832.25;5108319;28;20437;-57
2022/11/09 00:41:16;;;;;;;;;;;;;;;12.35;66.42;100837.41;5106118;28;19920;-61
2022/11/09 00:43:42;;;;;;;;;;;;;;;12.38;66.37;100845.13;5086230;28;19966;-58
2022/11/09 00:46:07;;;;;;;;;;;;;;;12.40;66.43;100824.78;5089336;28;20016;-60
2022/11/09 00:48:33;;;;;;;;;;;;;;;12.37;66.07;100824.13;5106702;27;19920;-60
2022/11/09 00:50:58;;;;;;;;;;;;;;;12.37;66.21;100819.69;5107598;27;19927;-61
2022/11/09 00:53:25;;;;;;;;;;;;;;;12.38;66.24;100812.63;5109939;27;19938;-58
2022/11/09 00:56:00;;;;;;;;;;;;;;;12.37;66.22;100810.94;5100714;28;19932;-58
2022/11/09 00:58:26;;;;;;;;;;;;;;;12.34;66.21;100814.59;5108898;28;19920;-62
2022/11/09 01:00:52;;;;;;;;;;;;;;;12.34;66.07;100811.97;5105029;27;19922;-59
2022/11/09 01:03:17;;;;;;;;;;;;;;;12.34;66.07;100814.59;5091700;28;19912;-59
2022/11/09 01:05:43;;;;;;;;;;;;;;;12.35;66.25;100818.94;5103195;28;20444;-58
2022/11/09 01:08:08;;;;;;;;;;;;;;;12.34;66.06;100817.25;5111659;27;20354;-57
2022/11/09 01:10:33;;;;;;;;;;;;;;;12.29;66.00;100816.72;5108243;27;19926;-59
2022/11/09 01:12:59;;;;;;;;;;;;;;;12.32;66.22;100811.25;5108106;27;19916;-58
2022/11/09 01:15:24;;;;;;;;;;;;;;;12.32;66.04;100813.88;5090207;28;19928;-58
2022/11/09 01:17:50;;;;;;;;;;;;;;;12.31;66.30;100805.09;5106845;28;19915;-58
2022/11/09 01:20:16;;;;;;;;;;;;;;;12.30;66.16;100806.03;5109837;28;20010;-58
2022/11/09 01:22:41;;;;;;;;;;;;;;;12.29;66.12;100804.34;5101295;28;19954;-57
2022/11/09 01:25:07;;;;;;;;;;;;;;;12.28;66.24;100804.47;5111990;27;19916;-58
2022/11/09 01:27:32;;;;;;;;;;;;;;;12.29;66.17;100806.16;5097665;28;19923;-58
2022/11/09 01:29:58;;;;;;;;;;;;;;;12.27;66.25;100798.31;5094713;27;20010;-60
2022/11/09 01:32:23;;;;;;;;;;;;;;;12.28;66.21;100801.81;5105994;28;20482;-60
2022/11/09 01:34:48;;;;;;;;;;;;;;;12.30;66.14;100807.84;5090098;28;20379;-58
2022/11/09 01:37:14;;;;;;;;;;;;;;;12.32;66.18;100803.31;5104019;28;19924;-58
2022/11/09 01:39:39;;;;;;;;;;;;;;;12.33;65.93;100799.72;5100265;28;19958;-59
2022/11/09 01:42:04;;;;;;;;;;;;;;;12.34;66.01;100798.78;5106759;27;19999;-61
2022/11/09 01:44:30;;;;;;;;;;;;;;;12.38;66.26;100805.56;5096209;28;20556;-61
2022/11/09 01:46:57;;;;;;;;;;;;;;;12.39;65.79;100809.88;5100911;27;19920;-57
2022/11/09 01:49:42;;;;;;;;;;;;;;;12.41;65.85;100804.50;5106575;28;19920;-60
2022/11/09 01:52:11;;;;;;;;;;;;;;;12.43;65.82;100795.56;5103407;28;19943;-60
2022/11/09 01:54:39;;;;;;;;;;;;;;;12.41;65.70;100797.44;5107791;28;19919;-61
2022/11/09 01:57:07;;;;;;;;;;;;;;;12.42;65.92;100791.22;5101818;28;22572;-58
2022/11/09 01:59:36;;;;;;;;;;;;;;;12.46;65.88;100795.38;5103762;28;20414;-58
2022/11/09 02:02:01;;;;;;;;;;;;;;;12.47;65.66;100797.06;5107548;28;19962;-60
2022/11/09 02:04:35;;;;;;;;;;;;;;;12.48;65.67;100788.16;5112946;27;19967;-58
2022/11/09 02:07:00;;;;;;;;;;;;;;;12.49;65.71;100787.22;5107105;28;19928;-57
2022/11/09 02:09:37;;;;;;;;;;;;;;;12.47;65.69;100777.72;5106121;27;20002;-61
2022/11/09 02:12:03;;;;;;;;;;;;;;;12.45;65.41;100774.34;5093586;28;19920;-59
2022/11/09 02:14:29;;;;;;;;;;;;;;;12.43;65.82;100769.16;5093452;27;20019;-57
2022/11/09 02:16:54;;;;;;;;;;;;;;;12.42;65.74;100770.13;5101515;27;19932;-61
2022/11/09 02:19:20;;;;;;;;;;;;;;;12.41;65.68;100768.41;5105638;28;19916;-59
2022/11/09 02:21:45;;;;;;;;;;;;;;;12.38;65.80;100768.59;5092550;28;19942;-58
2022/11/09 02:24:13;;;;;;;;;;;;;;;12.34;65.81;100762.69;5104075;28;19993;-59
2022/11/09 02:26:47;;;;;;;;;;;;;;;12.32;65.83;100756.66;5107646;28;19965;-60
2022/11/09 02:29:15;;;;;;;;;;;;;;;12.32;66.05;100753.19;5106366;27;19994;-59
2022/11/09 02:31:43;;;;;;;;;;;;;;;12.31;65.75;100757.59;5104522;27;19946;-58
2022/11/09 02:34:10;;;;;;;;;;;;;;;12.32;65.77;100763.75;5109063;28;19939;-58
2022/11/09 02:36:36;;;;;;;;;;;;;;;12.31;65.98;100764.69;5097110;28;19981;-61
2022/11/09 02:39:01;;;;;;;;;;;;;;;12.30;66.02;100765.63;5100537;28;20314;-57
2022/11/09 02:41:29;;;;;;;;;;;;;;;12.29;65.73;100763.94;5100603;28;20002;-60
2022/11/09 02:43:55;;;;;;;;;;;;;;;12.29;65.89;100759.50;5103761;27;19947;-58
2022/11/09 02:46:24;;;;;;;;;;;;;;;12.29;65.83;100753.38;5108713;27;19961;-61
2022/11/09 02:48:49;;;;;;;;;;;;;;;12.28;65.88;100759.59;5081533;28;20282;-58
2022/11/09 02:51:15;;;;;;;;;;;;;;;12.27;65.56;100761.38;5102633;27;19919;-57
2022/11/09 02:53:40;;;;;;;;;;;;;;;12.27;65.97;100756.09;5101539;28;19994;-62
2022/11/09 02:56:05;;;;;;;;;;;;;;;12.25;65.82;100755.34;5102225;28;19923;-60
2022/11/09 02:58:31;;;;;;;;;;;;;;;12.23;65.82;100759.91;5095988;28;19920;-63
2022/11/09 03:00:56;;;;;;;;;;;;;;;12.19;65.89;100763.69;5103867;27;19978;-61
2022/11/09 03:03:22;;;;;;;;;;;;;;;12.11;65.90;100764.19;5089414;28;19919;-60
2022/11/09 03:05:47;;;;;;;;;;;;;;;12.08;65.83;100772.28;5102916;27;20359;-57
2022/11/09 03:08:12;;;;;;;;;;;;;;;12.02;66.04;100772.69;5107590;27;19923;-59
2022/11/09 03:10:38;;;;;;;;;;;;;;;11.97;66.08;100769.44;5100153;28;20437;-60
2022/11/09 03:13:03;;;;;;;;;;;;;;;11.92;66.34;100771.53;5099616;28;19916;-63
2022/11/09 03:15:28;;;;;;;;;;;;;;;11.86;66.43;100767.47;5098472;27;19926;-60
2022/11/09 03:17:54;;;;;;;;;;;;;;;11.81;66.41;100765.13;5102026;28;19966;-58
2022/11/09 03:20:20;;;;;;;;;;;;;;;11.79;66.48;100759.13;5100678;27;25245;-61
2022/11/09 03:22:45;;;;;;;;;;;;;;;3.43;66.55;100770.06;5103142;27;19962;-58
2022/11/09 03:25:10;;;;;;;;;;;;;;;11.72;66.60;100763.09;5105884;28;20383;-60
2022/11/09 03:27:36;;;;;;;;;;;;;;;11.70;66.53;100767.59;5070270;28;19928;-58
2022/11/09 03:30:01;;;;;;;;;;;;;;;11.68;66.63;100772.94;5105895;27;19920;-57
2022/11/09 03:32:26;;;;;;;;;;;;;;;11.64;66.64;100767.97;5097663;28;20906;-60
2022/11/09 03:34:52;;;;;;;;;;;;;;;11.66;66.58;100760.81;5100318;27;20589;-62
2022/11/09 03:37:17;;;;;;;;;;;;;;;11.67;66.82;100767.78;5100057;28;19928;-59
2022/11/09 03:39:42;;;;;;;;;;;;;;;11.68;66.71;100766.84;5098530;28;20057;-60
2022/11/09 03:42:08;;;;;;;;;;;;;;;11.67;66.54;100765.16;5099103;28;19928;-57
2022/11/09 03:44:33;;;;;;;;;;;;;;;11.70;66.57;100765.81;5101775;27;20014;-60
2022/11/09 03:46:58;;;;;;;;;;;;;;;11.68;66.47;100761.59;5104531;28;19926;-58
2022/11/09 03:49:23;;;;;;;;;;;;;;;11.66;66.74;100758.19;5089412;28;19998;-58
2022/11/09 03:51:49;;;;;;;;;;;;;;;11.66;66.76;100768.72;5103381;28;19971;-60
2022/11/09 03:54:15;;;;;;;;;;;;;;;11.61;66.74;100754.97;5099909;27;19969;-58
2022/11/09 03:56:40;;;;;;;;;;;;;;;11.58;66.89;100751.59;5105967;28;20572;-59
2022/11/09 03:59:05;;;;;;;;;;;;;;;11.57;66.92;100754.34;5098352;28;20295;-58
2022/11/09 04:01:31;;;;;;;;;;;;;;;11.57;66.74;100747.25;5091120;28;20321;-58
2022/11/09 04:03:56;;;;;;;;;;;;;;;11.54;66.93;100742.19;5090739;27;19923;-61
2022/11/09 04:06:21;;;;;;;;;;;;;;;11.53;67.14;100745.78;5098670;28;19920;-60
2022/11/09 04:08:46;;;;;;;;;;;;;;;11.50;67.12;100735.41;5103101;28;19931;-60
2022/11/09 04:11:12;;;;;;;;;;;;;;;11.49;67.23;100731.09;5106339;28;19945;-57
2022/11/09 04:13:37;;;;;;;;;;;;;;;11.50;67.38;100735.41;5104493;28;19931;-58
2022/11/09 04:16:02;;;;;;;;;;;;;;;11.51;67.09;100747.66;5099107;28;20023;-63
2022/11/09 04:18:28;;;;;;;;;;;;;;;11.52;67.23;100753.75;5096017;28;19932;-61
2022/11/09 04:20:53;;;;;;;;;;;;;;;11.53;67.02;100758.09;5098215;28;20286;-60
2022/11/09 04:23:18;;;;;;;;;;;;;;;11.52;67.18;100754.63;5103427;28;19920;-61
2022/11/09 04:25:44;;;;;;;;;;;;;;;11.50;67.19;100753.88;5106399;28;19916;-59
2022/11/09 04:28:10;;;;;;;;;;;;;;;11.48;67.46;100747.00;5107505;28;19916;-58
2022/11/09 04:30:36;;;;;;;;;;;;;;;11.48;67.47;100747.84;5104609;28;19920;-59
2022/11/09 04:33:02;;;;;;;;;;;;;;;11.47;67.48;100746.13;5096330;28;19927;-60
2022/11/09 04:35:28;;;;;;;;;;;;;;;11.48;67.37;100752.28;5099159;28;20018;-61
2022/11/09 04:37:58;;;;;;;;;;;;;;;11.50;67.53;100745.97;5101962;28;19919;-62
2022/11/09 04:40:24;;;;;;;;;;;;;;;11.51;67.50;100745.03;5105141;28;19927;-61
2022/11/09 04:42:49;;;;;;;;;;;;;;;11.54;67.27;100750.09;5095779;28;19943;-61
2022/11/09 04:45:15;;;;;;;;;;;;;;;11.55;67.25;100746.53;5095946;28;19916;-58
2022/11/09 04:47:40;;;;;;;;;;;;;;;11.59;67.18;100753.28;5097224;28;20011;-58
2022/11/09 04:50:06;;;;;;;;;;;;;;;11.62;67.18;100767.22;5078487;28;19966;-60
2022/11/09 04:52:31;;;;;;;;;;;;;;;11.65;67.12;100780.22;5099794;28;19955;-59
2022/11/09 04:54:57;;;;;;;;;;;;;;;11.66;66.92;100781.91;5088811;28;19928;-58
2022/11/09 04:57:22;;;;;;;;;;;;;;;11.65;66.83;100782.84;5102258;28;19931;-58
2022/11/09 04:59:48;;;;;;;;;;;;;;;11.67;66.60;100778.34;5102208;28;19951;-57
2022/11/09 05:02:13;;;;;;;;;;;;;;;11.69;66.38;100771.19;5103883;28;20026;-61
2022/11/09 05:04:38;;;;;;;;;;;;;;;11.72;66.47;100777.09;5108281;28;19919;-59
2022/11/09 05:07:04;;;;;;;;;;;;;;;11.73;66.25;100767.38;5105048;28;19955;-60
2022/11/09 05:09:29;;;;;;;;;;;;;;;11.76;66.26;100767.22;5103569;27;19923;-60
2022/11/09 05:11:54;;;;;;;;;;;;;;;11.79;66.06;100759.13;5106964;27;20015;-62
2022/11/09 05:14:20;;;;;;;;;;;;;;;11.82;65.96;100758.94;5108629;27;20283;-57
2022/11/09 05:16:45;;;;;;;;;;;;;;;11.86;65.87;100756.94;5101674;28;19978;-58
2022/11/09 05:19:10;;;;;;;;;;;;;;;11.88;65.67;100761.16;5107578;28;19916;-59
2022/11/09 05:21:36;;;;;;;;;;;;;;;11.88;65.62;100753.25;5095995;28;19920;-60
2022/11/09 05:24:01;;;;;;;;;;;;;;;11.93;65.55;100747.72;5104876;27;20290;-59
2022/11/09 05:26:31;;;;;;;;;;;;;;;11.98;65.72;100755.31;5095758;27;20065;-57
2022/11/09 05:28:58;;;;;;;;;;;;;;;11.99;65.52;100755.25;5099879;27;19923;-58
2022/11/09 05:31:23;;;;;;;;;;;;;;;12.03;65.36;100753.25;5102168;27;19916;-59
2022/11/09 05:33:50;;;;;;;;;;;;;;;12.06;65.33;100753.06;5104895;27;19927;-59
2022/11/09 05:36:15;;;;;;;;;;;;;;;12.09;65.43;100767.88;5101704;27;20363;-61
2022/11/09 05:38:40;;;;;;;;;;;;;;;12.10;65.17;100759.84;5101622;27;20010;-62
2022/11/09 05:41:05;;;;;;;;;;;;;;;12.12;65.05;100751.81;5100895;27;19920;-59
2022/11/09 05:43:31;;;;;;;;;;;;;;;12.14;64.87;100757.84;5106966;28;19920;-60
2022/11/09 05:45:56;;;;;;;;;;;;;;;12.16;65.06;100764.75;5091546;27;19928;-59
2022/11/09 05:48:21;;;;;;;;;;;;;;;12.19;65.09;100761.03;5098458;27;19927;-57
2022/11/09 05:50:47;;;;;;;;;;;;;;;12.18;64.71;100768.09;5106916;27;19927;-58
2022/11/09 05:53:12;;;;;;;;;;;;;;;12.20;65.00;100766.22;5100297;27;19928;-61
2022/11/09 05:55:38;;;;;;;;;;;;;;;12.22;64.86;100770.53;5100704;27;19967;-58
2022/11/09 05:58:03;;;;;;;;;;;;;;;12.23;64.92;100781.03;5095621;27;19927;-61
2022/11/09 06:00:28;;;;;;;;;;;;;;;12.21;64.57;100772.34;5095084;27;20343;-62
2022/11/09 06:03:00;;;;;;;;;;;;;;;12.21;64.77;100761.81;5099404;27;19924;-58
2022/11/09 06:05:25;;;;;;;;;;;;;;;12.19;64.77;100759.25;5126879;22;19920;-58
2022/11/09 06:07:50;;;;;;;;;;;;;;;12.19;64.86;100759.25;5040433;28;20287;-58
2022/11/09 06:10:17;;;;;;;;;;;;;;;12.20;64.85;100770.66;5049389;28;19974;-57
2022/11/09 06:12:42;;;;;;;;;;;;;;;12.22;64.96;100775.81;5035807;28;19927;-59
2022/11/09 06:15:07;;;;;;;;;;;;;;;12.25;65.12;100778.28;5041876;28;19920;-58
2022/11/09 06:17:33;;;;;;;;;;;;;;;12.23;64.94;100783.66;5063555;28;19924;-61
2022/11/09 06:19:58;;;;;;;;;;;;;;;12.26;65.07;100787.88;5064664;28;19924;-57
2022/11/09 06:22:23;;;;;;;;;;;;;;;12.25;65.29;100789.66;5050586;28;19955;-60
2022/11/09 06:24:49;;;;;;;;;;;;;;;12.25;65.16;100789.66;5062895;28;20375;-59
2022/11/09 06:27:14;;;;;;;;;;;;;;;12.24;65.35;100785.34;5073551;28;19928;-56
2022/11/09 06:29:39;;;;;;;;;;;;;;;12.25;65.59;100786.19;5071012;28;19974;-58
2022/11/09 06:32:05;;;;;;;;;;;;;;;12.27;65.58;100792.22;5074496;28;19942;-57
2022/11/09 06:34:30;;;;;;;;;;;;;;;12.28;65.64;100804.47;5069167;28;20407;-57
2022/11/09 06:36:55;;;;;;;;;;;;;;;12.25;65.66;100791.47;5073049;28;19925;-57
2022/11/09 06:39:22;;;;;;;;;;;;;;;12.22;66.02;100789.88;5065334;28;20294;-58
2022/11/09 06:41:48;;;;;;;;;;;;;;;12.24;66.12;100797.69;5070477;28;20588;-58
2022/11/09 06:44:14;;;;;;;;;;;;;;;12.25;65.92;100796.75;5069839;28;19921;-56
2022/11/09 06:46:39;;;;;;;;;;;;;;;12.26;65.95;100793.16;5067944;28;19928;-57
2022/11/09 06:49:05;;;;;;;;;;;;;;;12.27;66.35;100792.22;5069433;28;19926;-61
2022/11/09 06:51:30;;;;;;;;;;;;;;;12.23;66.63;100790.72;5054098;28;19921;-57
2022/11/09 06:53:55;;;;;;;;;;;;;;;12.24;66.76;100795.91;5065560;28;19929;-58
2022/11/09 06:56:20;;;;;;;;;;;;;;;12.24;67.27;100795.91;5061344;28;19924;-60
2022/11/09 06:58:46;;;;;;;;;;;;;;;12.24;67.38;100797.69;5066928;28;19920;-59
2022/11/09 07:01:13;;;;;;;;;;;;;;;12.25;67.65;100786.19;5056168;28;19920;-58
2022/11/09 07:03:39;;;;;;;;;;;;;;;12.26;68.08;100791.34;5061259;28;20024;-59
2022/11/09 07:06:08;;;;;;;;;;;;;;;12.27;67.94;100792.22;5062775;28;20007;-60
2022/11/09 07:08:33;;;;;;;;;;;;;;;12.26;68.15;100796.63;5059251;28;20366;-58
2022/11/09 07:11:06;;;;;;;;;;;;;;;12.27;68.09;100802.75;5070698;28;19921;-61
2022/11/09 07:13:31;;;;;;;;;;;;;;;12.29;68.27;100792.97;5060293;28;19920;-60
2022/11/09 07:15:56;;;;;;;;;;;;;;;12.26;68.59;100795.78;5064724;28;20379;-58
2022/11/09 07:18:22;;;;;;;;;;;;;;;12.28;68.76;100799.19;5063250;28;19912;-57
2022/11/09 07:20:47;;;;;;;;;;;;;;;12.29;68.73;100808.78;5058755;28;20007;-59
2022/11/09 07:23:12;;;;;;;;;;;;;;;12.29;68.97;100800.88;5057028;28;20007;-58
2022/11/09 07:25:37;;;;;;;;;;;;;;;12.30;68.64;100802.56;5071708;28;20387;-59
2022/11/09 07:28:04;;;;;;;;;;;;;;;12.32;68.71;100811.25;5071039;28;19916;-57
2022/11/09 07:30:29;;;;;;;;;;;;;;;12.32;68.79;100813.88;5069306;28;19921;-57
2022/11/09 07:32:56;;;;;;;;;;;;;;;12.32;69.12;100809.44;5061706;28;19920;-58
2022/11/09 07:35:22;;;;;;;;;;;;;;;12.33;69.33;100812.91;5067166;28;19970;-59
2022/11/09 07:37:47;;;;;;;;;;;;;;;12.33;69.45;100810.25;5054252;28;19928;-58
2022/11/09 07:40:12;;;;;;;;;;;;;;;12.35;69.06;100811.03;5067649;28;20066;-58
2022/11/09 07:42:38;;;;;;;;;;;;;;;12.37;69.22;100809.13;5067388;28;20003;-58
2022/11/09 07:45:03;;;;;;;;;;;;;;;12.39;69.40;100807.25;5068174;28;19916;-58
2022/11/09 07:47:29;;;;;;;;;;;;;;;12.41;69.30;100815.91;5068577;28;20013;-58
2022/11/09 07:49:54;;;;;;;;;;;;;;;12.40;69.37;100819.50;5066905;28;19975;-59
2022/11/09 07:52:19;;;;;;;;;;;;;;;12.43;69.35;100818.44;5068901;28;20361;-58
2022/11/09 07:54:45;;;;;;;;;;;;;;;12.44;69.58;100810.44;5067816;28;20359;-58
2022/11/09 07:57:10;;;;;;;;;;;;;;;12.42;69.87;100812.34;5061242;28;19925;-57
2022/11/09 07:59:36;;;;;;;;;;;;;;;12.44;69.80;100813.09;5070284;28;20370;-59
2022/11/09 08:02:01;;;;;;;;;;;;;;;12.48;69.68;100817.19;5068375;28;20575;-58
2022/11/09 08:04:26;;;;;;;;;;;;;;;12.49;69.68;100808.34;5071868;28;19924;-60
2022/11/09 08:06:52;;;;;;;;;;;;;;;12.53;70.09;100810.78;5063190;28;20334;-58
2022/11/09 08:09:17;;;;;;;;;;;;;;;12.53;70.14;100808.16;5070440;28;19924;-57
2022/11/09 08:11:43;;;;;;;;;;;;;;;12.57;70.09;100814.94;5066345;28;19959;-59
2022/11/09 08:14:08;;;;;;;;;;;;;;;12.60;70.21;100810.28;5066011;28;19927;-58
2022/11/09 08:16:33;;;;;;;;;;;;;;;12.62;70.25;100807.56;5065115;28;19959;-58
2022/11/09 08:18:59;;;;;;;;;;;;;;;12.64;70.31;100811.78;5063401;28;19956;-58
2022/11/09 08:21:24;;;;;;;;;;;;;;;12.68;70.18;100815.06;5064653;28;19920;-57
2022/11/09 08:23:49;;;;;;;;;;;;;;;12.72;69.99;100807.78;5056498;28;20325;-58
2022/11/09 08:26:15;;;;;;;;;;;;;;;12.75;70.30;100813.72;5066973;28;20019;-59
2022/11/09 08:28:41;;;;;;;;;;;;;;;12.78;70.09;100813.50;5069807;28;19928;-61
2022/11/09 08:31:06;;;;;;;;;;;;;;;12.83;70.23;100820.28;5064441;28;19946;-58
2022/11/09 08:33:36;;;;;;;;;;;;;;;12.84;70.30;100833.41;5058385;28;19940;-58
2022/11/09 08:36:07;;;;;;;;;;;;;;;12.87;70.39;100819.13;5065062;28;20311;-58
2022/11/09 08:38:32;;;;;;;;;;;;;;;12.90;70.39;100816.31;5072917;28;19916;-58
2022/11/09 08:40:58;;;;;;;;;;;;;;;12.93;70.73;100800.25;5064866;28;19931;-61
2022/11/09 08:43:23;;;;;;;;;;;;;;;12.97;70.73;100796.44;5062353;28;19920;-58
2022/11/09 08:45:48;;;;;;;;;;;;;;;13.01;70.94;100807.66;5068139;28;19982;-58
2022/11/09 08:48:14;;;;;;;;;;;;;;;13.05;70.35;100820.56;5066093;28;20307;-57
2022/11/09 08:50:39;;;;;;;;;;;;;;;13.09;70.50;100821.19;5069942;28;19920;-58
2022/11/09 08:53:05;;;;;;;;;;;;;;;13.11;70.29;100814.84;5071647;28;20378;-57
2022/11/09 08:55:31;;;;;;;;;;;;;;;13.15;70.37;100819.94;5067566;28;19925;-58
2022/11/09 08:57:57;;;;;;;;;;;;;;;13.11;70.88;100827.22;5065386;28;19919;-58
2022/11/09 09:00:23;;;;;;;;;;;;;;;13.07;71.19;100838.94;5071545;28;20007;-58
2022/11/09 09:02:48;;;;;;;;;;;;;;;13.05;71.28;100835.53;5067016;28;20364;-58
2022/11/09 09:05:14;;;;;;;;;;;;;;;13.00;71.48;100846.44;5067479;28;20417;-60
2022/11/09 09:07:39;;;;;;;;;;;;;;;13.00;71.35;100830.56;5068805;28;19916;-58
2022/11/09 09:10:05;;;;;;;;;;;;;;;13.02;71.20;100836.59;5069640;28;19959;-59
2022/11/09 09:12:31;;;;;;;;;;;;;;;13.00;71.41;100832.38;5065621;28;19965;-58
2022/11/09 09:14:56;;;;;;;;;;;;;;;12.93;71.65;100842.50;5072342;28;19970;-57
2022/11/09 09:17:21;;;;;;;;;;;;;;;12.88;71.98;100844.59;5072413;28;19936;-58
2022/11/09 09:19:46;;;;;;;;;;;;;;;12.83;72.20;100851.97;5071958;28;19916;-59
2022/11/09 09:22:12;;;;;;;;;;;;;;;12.76;72.42;100859.44;5065503;28;19939;-57
2022/11/09 09:24:37;;;;;;;;;;;;;;;12.73;72.41;100854.34;5053268;28;19924;-58
2022/11/09 09:27:02;;;;;;;;;;;;;;;12.71;72.40;100857.13;5073027;28;19920;-60
2022/11/09 09:29:28;;;;;;;;;;;;;;;12.68;72.49;100859.13;5069872;28;20299;-58
2022/11/09 09:31:53;;;;;;;;;;;;;;;12.67;72.38;100858.25;5073763;28;19917;-58
2022/11/09 09:34:18;;;;;;;;;;;;;;;12.67;72.31;100871.44;5070882;28;19929;-59
2022/11/09 09:36:43;;;;;;;;;;;;;;;12.64;72.61;100875.13;5074382;28;20377;-58
2022/11/09 09:39:09;;;;;;;;;;;;;;;12.63;72.69;100857.59;5056354;28;19916;-59
2022/11/09 09:41:37;;;;;;;;;;;;;;;12.61;73.22;100885.06;5068949;28;19927;-60
2022/11/09 09:44:18;;;;;;;;;;;;;;;12.64;72.79;100882.19;5069180;28;19921;-58
2022/11/09 09:46:47;;;;;;;;;;;;;;;12.65;72.86;100899.72;5071939;28;22518;-58
2022/11/09 09:49:25;;;;;;;;;;;;;;;12.67;72.98;100889.94;5067787;28;19916;-57
2022/11/09 09:51:57;;;;;;;;;;;;;;;12.66;73.32;100877.66;5060573;28;19916;-58
2022/11/09 09:54:24;;;;;;;;;;;;;;;12.68;73.96;100869.66;5067840;28;19971;-59
2022/11/09 09:56:51;;;;;;;;;;;;;;;12.68;73.96;100873.16;5067030;28;19928;-58
2022/11/09 09:59:31;;;;;;;;;;;;;;;12.70;74.10;100876.53;5060618;28;19917;-61
2022/11/09 10:01:57;;;;;;;;;;;;;;;12.73;73.89;100878.13;5061846;28;19924;-58
2022/11/09 10:04:27;;;;;;;;;;;;;;;12.77;73.85;100885.78;5064891;28;19936;-58
2022/11/09 10:07:02;;;;;;;;;;;;;;;12.81;74.09;100874.03;5069920;28;19931;-57
2022/11/09 10:09:27;;;;;;;;;;;;;;;12.83;74.17;100867.81;5068854;28;19916;-59
2022/11/09 10:12:04;;;;;;;;;;;;;;;12.90;74.15;100863.84;5072151;28;19912;-60
2022/11/09 10:14:32;;;;;;;;;;;;;;;12.95;74.23;100869.66;5064674;28;19912;-58
2022/11/09 10:16:57;;;;;;;;;;;;;;;13.05;73.68;100883.97;5070897;28;19954;-57
2022/11/09 10:19:22;;;;;;;;;;;;;;;13.09;73.79;100885.44;5065465;28;20645;-58
2022/11/09 10:22:17;;;;;;;;;;;;;;;13.15;73.47;100881.56;5050130;28;19947;-60
2022/11/09 10:24:49;;;;;;;;;;;;;;;13.20;73.45;100881.25;5004088;28;19918;-60
2022/11/09 10:27:35;;;;;;;;;;;;;;;13.24;73.29;100891.50;5065601;28;19920;-59
2022/11/09 10:30:00;;;;;;;;;;;;;;;13.32;72.96;100885.72;5070022;28;19917;-56
2022/11/09 10:32:28;;;;;;;;;;;;;;;13.34;72.79;100880.31;5071191;28;19923;-55
2022/11/09 10:35:12;;;;;;;;;;;;;;;13.37;72.55;100878.31;5068012;28;19920;-55
2022/11/09 10:37:39;;;;;;;;;;;;;;;13.40;72.48;100883.41;5070946;28;19964;-55
2022/11/09 10:40:05;;;;;;;;;;;;;;;13.45;72.48;100885.78;5070151;28;19928;-59
2022/11/09 10:42:30;;;;;;;;;;;;;;;13.49;72.31;100883.75;5067348;28;19912;-67
2022/11/09 10:44:57;;;;;;;;;;;;;;;13.53;72.25;100879.97;5066425;28;20431;-57
2022/11/09 10:47:25;;;;;;;;;;;;;;;13.50;72.36;100875.72;5075057;28;19920;-55
2022/11/09 10:50:08;;;;;;;;;;;;;;;13.54;72.28;100884.28;5069589;28;19970;-56
2022/11/09 10:52:40;;;;;;;;;;;;;;;13.57;71.99;100884.06;5066813;28;19970;-56
2022/11/09 10:55:15;;;;;;;;;;;;;;;13.59;72.02;100876.88;5069942;28;19991;-55
2022/11/09 10:57:49;;;;;;;;;;;;;;;13.64;71.97;100879.22;5069443;28;20287;-55
2022/11/09 11:00:16;;;;;;;;;;;;;;;13.67;71.92;100879.88;5068793;28;19923;-55
2022/11/09 11:02:42;;;;;;;;;;;;;;;13.71;71.99;100883.97;5069148;28;19943;-59
2022/11/09 11:05:08;;;;;;;;;;;;;;;13.73;71.86;100873.31;5067551;28;19913;-56
2022/11/09 11:07:34;;;;;;;;;;;;;;;13.72;71.97;100869.78;5062537;28;19937;-57
2022/11/09 11:10:14;;;;;;;;;;;;;;;13.71;72.02;100868.09;5071949;28;19947;-56
2022/11/09 11:12:40;;;;;;;;;;;;;;;13.65;71.96;100857.97;5067525;28;19912;-56
2022/11/09 11:15:27;;;;;;;;;;;;;;;13.60;71.96;100862.72;5071251;28;20384;-56
2022/11/09 11:18:03;;;;;;;;;;;;;;;13.53;71.82;100870.22;5067923;28;19916;-55
2022/11/09 11:20:30;;;;;;;;;;;;;;;13.46;72.24;100871.56;5064840;28;19931;-56
2022/11/09 11:23:25;;;;;;;;;;;;;;;13.42;72.44;100875.41;5070334;28;20342;-55
2022/11/09 11:25:58;;;;;;;;;;;;;;;13.38;72.34;100873.88;5043389;28;20430;-59
2022/11/09 11:28:38;;;;;;;;;;;;;;;13.33;72.77;100866.25;5070630;28;20015;-62
2022/11/09 11:31:06;;;;;;;;;;;;;;;13.33;72.78;100868.03;5060077;28;19912;-58
2022/11/09 11:33:33;;;;;;;;;;;;;;;13.30;72.74;100858.53;5068390;28;19921;-58
2022/11/09 11:36:17;;;;;;;;;;;;;;;13.31;73.12;100867.31;5063934;28;23117;-56
2022/11/09 11:38:50;;;;;;;;;;;;;;;13.29;73.32;100864.75;5069377;28;20418;-55
2022/11/09 11:41:34;;;;;;;;;;;;;;;13.32;73.29;100861.91;5069920;28;19917;-56
2022/11/09 11:43:59;;;;;;;;;;;;;;;13.35;73.58;100859.06;5066013;28;19952;-56
2022/11/09 11:46:25;;;;;;;;;;;;;;;13.39;73.49;100854.41;5064931;28;20013;-56
2022/11/09 11:48:53;;;;;;;;;;;;;;;13.43;73.39;100836.59;5063765;28;19917;-55
2022/11/09 11:51:21;;;;;;;;;;;;;;;13.48;73.42;100834.47;5066740;28;19916;-55
2022/11/09 11:53:57;;;;;;;;;;;;;;;13.53;73.32;100842.94;5066254;28;19919;-57
2022/11/09 11:56:27;;;;;;;;;;;;;;;13.63;73.05;100854.56;5066788;28;19925;-56
2022/11/09 11:58:58;;;;;;;;;;;;;;;13.74;72.91;100858.25;5069367;28;20383;-58
2022/11/09 12:01:33;;;;;;;;;;;;;;;13.85;72.63;100850.44;5068906;28;19913;-61
2022/11/09 12:04:16;;;;;;;;;;;;;;;13.97;72.35;100857.53;5060398;28;19917;-60
2022/11/09 12:06:45;;;;;;;;;;;;;;;14.08;71.87;100840.03;5054312;28;19928;-60
2022/11/09 12:09:26;;;;;;;;;;;;;;;14.12;71.59;100836.22;5059359;28;20421;-61
2022/11/09 12:11:59;;;;;;;;;;;;;;;14.14;71.52;100824.56;5066286;28;19932;-55
2022/11/09 12:14:43;;;;;;;;;;;;;;;14.16;71.81;100832.38;5040313;28;20478;-62
2022/11/09 12:17:36;;;;;;;;;;;;;;;14.22;71.59;100837.25;5070813;28;19948;-55
2022/11/09 12:20:22;;;;;;;;;;;;;;;14.28;71.37;100836.81;5065863;28;19920;-55
2022/11/09 12:23:02;;;;;;;;;;;;;;;14.38;71.09;100833.50;5043485;28;19917;-57
2022/11/09 12:25:34;;;;;;;;;;;;;;;14.43;70.81;100824.25;5063750;28;19950;-59
2022/11/09 12:28:02;;;;;;;;;;;;;;;14.51;70.66;100820.22;5067015;28;20007;-58
2022/11/09 12:30:37;;;;;;;;;;;;;;;14.56;70.52;100826.88;5065198;28;20054;-59
2022/11/09 12:33:07;;;;;;;;;;;;;;;14.57;70.47;100830.34;5069335;28;19988;-60
2022/11/09 12:35:36;;;;;;;;;;;;;;;14.55;70.33;100819.88;5073078;28;19920;-57
2022/11/09 12:38:01;;;;;;;;;;;;;;;14.54;70.13;100828.78;5063022;28;19966;-58